Station Historical Data
Daily Summary for April 20, 2012 Units:  Both    English   Metric
« Previous Day
Next Day »
Daily Weekly Monthly Yearly Custom
  High: Low: Average:
Temperature: 75.3 °F /  24.1 °C 55.0 °F /  12.8 °C 64.2 °F /  17.9 °C
Dew Point: 63.8 °F /  17.7 °C 53.6 °F /  12 °C 57.8 °F /  14.3 °C
Humidity: 95% 52% 81%
Wind Speed: 11.0mph /  17.7km/h - 3.4mph /  5.5km/h
Wind Gust: 13.0mph /  20.9km/h - -
Wind- - SSE
Pressure: 29.89 in /  1012.1 hPa 29.73 in /  1006.7 hPa -
Precipitation: 0.00 in /  0 mm    
Historical Graphs
 
 
Tabular Data for April 20, 2012
Time Temperature Dew Point Pressure Wind Wind Speed Wind Gust Humidity Rainfall Rate (Hourly) Conditions
00:00 62.2 °F /  16.8 °C 55.6 °F /  13.1 °C 29.88in /  1011.7hPa ESE 3.0mph /  4.8km/h 4.0mph /  6.4km/h 79% 0.00in /  0mm
00:03 62.0 °F /  16.7 °C 55.4 °F /  13 °C 29.88in /  1011.7hPa SE 3.0mph /  4.8km/h 5.0mph /  8km/h 79% 0.00in /  0mm
00:08 61.8 °F /  16.6 °C 55.6 °F /  13.1 °C 29.88in /  1011.7hPa ESE 2.0mph /  3.2km/h 4.0mph /  6.4km/h 80% 0.00in /  0mm
00:13 61.5 °F /  16.4 °C 55.3 °F /  12.9 °C 29.88in /  1011.7hPa ESE 3.0mph /  4.8km/h 4.0mph /  6.4km/h 80% 0.00in /  0mm
00:18 61.3 °F /  16.3 °C 55.4 °F /  13 °C 29.88in /  1011.7hPa SE 3.0mph /  4.8km/h 5.0mph /  8km/h 81% 0.00in /  0mm
00:23 61.3 °F /  16.3 °C 55.8 °F /  13.2 °C 29.88in /  1011.7hPa ESE 3.0mph /  4.8km/h 5.0mph /  8km/h 82% 0.00in /  0mm
00:28 61.3 °F /  16.3 °C 55.8 °F /  13.2 °C 29.88in /  1011.7hPa ESE 4.0mph /  6.4km/h 4.0mph /  6.4km/h 82% 0.00in /  0mm
00:33 61.2 °F /  16.2 °C 56.0 °F /  13.3 °C 29.87in /  1011.4hPa ESE 4.0mph /  6.4km/h 6.0mph /  9.7km/h 83% 0.00in /  0mm
00:39 61.1 °F /  16.2 °C 55.9 °F /  13.3 °C 29.87in /  1011.4hPa SE 5.0mph /  8km/h 5.0mph /  8km/h 83% 0.00in /  0mm
00:44 61.2 °F /  16.2 °C 56.0 °F /  13.3 °C 29.87in /  1011.4hPa SE 2.0mph /  3.2km/h 5.0mph /  8km/h 83% 0.00in /  0mm
00:49 61.2 °F /  16.2 °C 56.3 °F /  13.5 °C 29.87in /  1011.4hPa SE 3.0mph /  4.8km/h 6.0mph /  9.7km/h 84% 0.00in /  0mm
00:54 61.0 °F /  16.1 °C 56.1 °F /  13.4 °C 29.87in /  1011.4hPa ESE 2.0mph /  3.2km/h 4.0mph /  6.4km/h 84% 0.00in /  0mm
00:59 61.2 °F /  16.2 °C 56.3 °F /  13.5 °C 29.87in /  1011.4hPa ESE 4.0mph /  6.4km/h 6.0mph /  9.7km/h 84% 0.00in /  0mm
01:04 61.2 °F /  16.2 °C 56.3 °F /  13.5 °C 29.87in /  1011.4hPa ESE 3.0mph /  4.8km/h 5.0mph /  8km/h 84% 0.00in /  0mm
01:09 61.0 °F /  16.1 °C 56.5 °F /  13.6 °C 29.87in /  1011.4hPa ESE 3.0mph /  4.8km/h 5.0mph /  8km/h 85% 0.00in /  0mm
01:14 60.7 °F /  15.9 °C 56.2 °F /  13.4 °C 29.87in /  1011.4hPa ESE 4.0mph /  6.4km/h 5.0mph /  8km/h 85% 0.00in /  0mm
01:19 60.5 °F /  15.8 °C 56.0 °F /  13.3 °C 29.87in /  1011.4hPa SE 3.0mph /  4.8km/h 5.0mph /  8km/h 85% 0.00in /  0mm
01:24 60.2 °F /  15.7 °C 56.0 °F /  13.3 °C 29.87in /  1011.4hPa SE 3.0mph /  4.8km/h 4.0mph /  6.4km/h 86% 0.00in /  0mm
01:29 60.0 °F /  15.6 °C 55.8 °F /  13.2 °C 29.87in /  1011.4hPa ESE 3.0mph /  4.8km/h 4.0mph /  6.4km/h 86% 0.00in /  0mm
01:34 59.9 °F /  15.5 °C 56.0 °F /  13.3 °C 29.87in /  1011.4hPa SE 2.0mph /  3.2km/h 4.0mph /  6.4km/h 87% 0.00in /  0mm
01:39 60.0 °F /  15.6 °C 56.1 °F /  13.4 °C 29.87in /  1011.4hPa ESE 4.0mph /  6.4km/h 6.0mph /  9.7km/h 87% 0.00in /  0mm
01:44 60.1 °F /  15.6 °C 56.2 °F /  13.4 °C 29.87in /  1011.4hPa SE 3.0mph /  4.8km/h 5.0mph /  8km/h 87% 0.00in /  0mm
01:49 60.0 °F /  15.6 °C 56.4 °F /  13.6 °C 29.87in /  1011.4hPa SE 4.0mph /  6.4km/h 5.0mph /  8km/h 88% 0.00in /  0mm
01:54 59.9 °F /  15.5 °C 56.3 °F /  13.5 °C 29.86in /  1011.1hPa SE 4.0mph /  6.4km/h 4.0mph /  6.4km/h 88% 0.00in /  0mm
01:59 59.8 °F /  15.4 °C 56.2 °F /  13.4 °C 29.87in /  1011.4hPa SSE 2.0mph /  3.2km/h 3.0mph /  4.8km/h 88% 0.00in /  0mm
02:04 59.6 °F /  15.3 °C 56.4 °F /  13.6 °C 29.86in /  1011.1hPa SE 3.0mph /  4.8km/h 4.0mph /  6.4km/h 89% 0.00in /  0mm
02:09 59.5 °F /  15.3 °C 56.3 °F /  13.5 °C 29.86in /  1011.1hPa SE 2.0mph /  3.2km/h 3.0mph /  4.8km/h 89% 0.00in /  0mm
02:14 59.1 °F /  15.1 °C 55.9 °F /  13.3 °C 29.86in /  1011.1hPa SE 3.0mph /  4.8km/h 3.0mph /  4.8km/h 89% 0.00in /  0mm
02:19 59.0 °F /  15 °C 56.1 °F /  13.4 °C 29.86in /  1011.1hPa SE 3.0mph /  4.8km/h 3.0mph /  4.8km/h 90% 0.00in /  0mm
02:24 59.1 °F /  15.1 °C 56.2 °F /  13.4 °C 29.85in /  1010.7hPa SE 3.0mph /  4.8km/h 4.0mph /  6.4km/h 90% 0.00in /  0mm
02:29 59.0 °F /  15 °C 56.1 °F /  13.4 °C 29.85in /  1010.7hPa SE 2.0mph /  3.2km/h 4.0mph /  6.4km/h 90% 0.00in /  0mm
02:34 58.9 °F /  14.9 °C 56.0 °F /  13.3 °C 29.85in /  1010.7hPa ESE 4.0mph /  6.4km/h 4.0mph /  6.4km/h 90% 0.00in /  0mm
02:39 59.0 °F /  15 °C 56.4 °F /  13.6 °C 29.85in /  1010.7hPa SE 4.0mph /  6.4km/h 5.0mph /  8km/h 91% 0.00in /  0mm
02:44 58.9 °F /  14.9 °C 56.3 °F /  13.5 °C 29.85in /  1010.7hPa SE 2.0mph /  3.2km/h 4.0mph /  6.4km/h 91% 0.00in /  0mm
02:50 58.7 °F /  14.8 °C 56.1 °F /  13.4 °C 29.84in /  1010.4hPa SSE 4.0mph /  6.4km/h 4.0mph /  6.4km/h 91% 0.00in /  0mm
02:55 58.6 °F /  14.8 °C 56.0 °F /  13.3 °C 29.84in /  1010.4hPa SE 2.0mph /  3.2km/h 4.0mph /  6.4km/h 91% 0.00in /  0mm
03:00 58.6 °F /  14.8 °C 56.3 °F /  13.5 °C 29.84in /  1010.4hPa SE 3.0mph /  4.8km/h 5.0mph /  8km/h 92% 0.00in /  0mm
03:05 58.6 °F /  14.8 °C 56.3 °F /  13.5 °C 29.84in /  1010.4hPa SE 4.0mph /  6.4km/h 5.0mph /  8km/h 92% 0.00in /  0mm
03:10 58.4 °F /  14.7 °C 56.1 °F /  13.4 °C 29.84in /  1010.4hPa SSE 2.0mph /  3.2km/h 4.0mph /  6.4km/h 92% 0.00in /  0mm
03:15 58.4 °F /  14.7 °C 56.1 °F /  13.4 °C 29.84in /  1010.4hPa SE 3.0mph /  4.8km/h 5.0mph /  8km/h 92% 0.00in /  0mm
03:20 58.4 °F /  14.7 °C 56.4 °F /  13.6 °C 29.84in /  1010.4hPa SE 2.0mph /  3.2km/h 6.0mph /  9.7km/h 93% 0.00in /  0mm
03:25 58.4 °F /  14.7 °C 56.4 °F /  13.6 °C 29.83in /  1010hPa SE 4.0mph /  6.4km/h 5.0mph /  8km/h 93% 0.00in /  0mm
03:30 58.5 °F /  14.7 °C 56.5 °F /  13.6 °C 29.84in /  1010.4hPa SE 4.0mph /  6.4km/h 5.0mph /  8km/h 93% 0.00in /  0mm
03:35 58.6 °F /  14.8 °C 56.6 °F /  13.7 °C 29.83in /  1010hPa SSE 3.0mph /  4.8km/h 6.0mph /  9.7km/h 93% 0.00in /  0mm
03:40 58.6 °F /  14.8 °C 56.6 °F /  13.7 °C 29.83in /  1010hPa ESE 6.0mph /  9.7km/h 7.0mph /  11.3km/h 93% 0.00in /  0mm
03:45 58.6 °F /  14.8 °C 56.6 °F /  13.7 °C 29.83in /  1010hPa SE 5.0mph /  8km/h 7.0mph /  11.3km/h 93% 0.00in /  0mm
03:47 58.6 °F /  14.8 °C 56.6 °F /  13.7 °C 29.83in /  1010hPa SE 5.0mph /  8km/h 6.0mph /  9.7km/h 93% 0.00in /  0mm
03:52 58.4 °F /  14.7 °C 56.4 °F /  13.6 °C 29.83in /  1010hPa SE 6.0mph /  9.7km/h 6.0mph /  9.7km/h 93% 0.00in /  0mm
03:57 58.4 °F /  14.7 °C 56.4 °F /  13.6 °C 29.83in /  1010hPa ESE 5.0mph /  8km/h 5.0mph /  8km/h 93% 0.00in /  0mm
04:02 58.2 °F /  14.6 °C 56.2 °F /  13.4 °C 29.83in /  1010hPa SE 2.0mph /  3.2km/h 6.0mph /  9.7km/h 93% 0.00in /  0mm
04:07 58.0 °F /  14.4 °C 56.0 °F /  13.3 °C 29.83in /  1010hPa SSE 3.0mph /  4.8km/h 6.0mph /  9.7km/h 93% 0.00in /  0mm
04:12 57.9 °F /  14.4 °C 55.9 °F /  13.3 °C 29.83in /  1010hPa SSE 3.0mph /  4.8km/h 4.0mph /  6.4km/h 93% 0.00in /  0mm
04:17 57.9 °F /  14.4 °C 55.9 °F /  13.3 °C 29.84in /  1010.4hPa SSW 2.0mph /  3.2km/h 5.0mph /  8km/h 93% 0.00in /  0mm
04:23 57.7 °F /  14.3 °C 55.7 °F /  13.2 °C 29.84in /  1010.4hPa SSE 1.0mph /  1.6km/h 4.0mph /  6.4km/h 93% 0.00in /  0mm
04:28 57.4 °F /  14.1 °C 55.4 °F /  13 °C 29.83in /  1010hPa SSE 2.0mph /  3.2km/h 4.0mph /  6.4km/h 93% 0.00in /  0mm
04:33 57.2 °F /  14 °C 55.5 °F /  13.1 °C 29.84in /  1010.4hPa SE 3.0mph /  4.8km/h 4.0mph /  6.4km/h 94% 0.00in /  0mm
04:38 57.1 °F /  13.9 °C 55.4 °F /  13 °C 29.84in /  1010.4hPa SE 3.0mph /  4.8km/h 4.0mph /  6.4km/h 94% 0.00in /  0mm
04:43 57.2 °F /  14 °C 55.5 °F /  13.1 °C 29.84in /  1010.4hPa SE 2.0mph /  3.2km/h 3.0mph /  4.8km/h 94% 0.00in /  0mm
04:48 57.2 °F /  14 °C 55.5 °F /  13.1 °C 29.84in /  1010.4hPa SE 2.0mph /  3.2km/h 4.0mph /  6.4km/h 94% 0.00in /  0mm
04:53 57.1 °F /  13.9 °C 55.4 °F /  13 °C 29.84in /  1010.4hPa SSE 2.0mph /  3.2km/h 3.0mph /  4.8km/h 94% 0.00in /  0mm
04:59 57.0 °F /  13.9 °C 55.3 °F /  12.9 °C 29.84in /  1010.4hPa SSE 2.0mph /  3.2km/h 3.0mph /  4.8km/h 94% 0.00in /  0mm
05:04 56.9 °F /  13.8 °C 55.2 °F /  12.9 °C 29.84in /  1010.4hPa Calm   2.0mph /  3.2km/h 94% 0.00in /  0mm
05:09 56.8 °F /  13.8 °C 55.1 °F /  12.8 °C 29.84in /  1010.4hPa Calm   2.0mph /  3.2km/h 94% 0.00in /  0mm
05:14 56.7 °F /  13.7 °C 55.0 °F /  12.8 °C 29.84in /  1010.4hPa Calm   1.0mph /  1.6km/h 94% 0.00in /  0mm
05:19 56.7 °F /  13.7 °C 55.0 °F /  12.8 °C 29.84in /  1010.4hPa Calm     94% 0.00in /  0mm
05:24 56.7 °F /  13.7 °C 55.0 °F /  12.8 °C 29.85in /  1010.7hPa Calm     94% 0.00in /  0mm
05:29 56.6 °F /  13.7 °C 55.2 °F /  12.9 °C 29.85in /  1010.7hPa Calm   1.0mph /  1.6km/h 95% 0.00in /  0mm
05:34 56.6 °F /  13.7 °C 55.2 °F /  12.9 °C 29.84in /  1010.4hPa Calm   1.0mph /  1.6km/h 95% 0.00in /  0mm
05:39 56.6 °F /  13.7 °C 55.2 °F /  12.9 °C 29.84in /  1010.4hPa Calm   1.0mph /  1.6km/h 95% 0.00in /  0mm
05:44 56.6 °F /  13.7 °C 55.2 °F /  12.9 °C 29.85in /  1010.7hPa Calm   1.0mph /  1.6km/h 95% 0.00in /  0mm
05:49 56.5 °F /  13.6 °C 55.1 °F /  12.8 °C 29.84in /  1010.4hPa Calm     95% 0.00in /  0mm
05:54 56.4 °F /  13.6 °C 55.0 °F /  12.8 °C 29.84in /  1010.4hPa Calm     95% 0.00in /  0mm
05:59 56.3 °F /  13.5 °C 54.9 °F /  12.7 °C 29.84in /  1010.4hPa Calm     95% 0.00in /  0mm
06:04 56.2 °F /  13.4 °C 54.8 °F /  12.7 °C 29.84in /  1010.4hPa Calm     95% 0.00in /  0mm
06:09 56.0 °F /  13.3 °C 54.6 °F /  12.6 °C 29.84in /  1010.4hPa Calm     95% 0.00in /  0mm
06:14 55.9 °F /  13.3 °C 54.5 °F /  12.5 °C 29.84in /  1010.4hPa Calm     95% 0.00in /  0mm
06:19 56.0 °F /  13.3 °C 54.6 °F /  12.6 °C 29.85in /  1010.7hPa Calm     95% 0.00in /  0mm
06:24 56.1 °F /  13.4 °C 54.7 °F /  12.6 °C 29.85in /  1010.7hPa Calm   1.0mph /  1.6km/h 95% 0.00in /  0mm
06:29 56.2 °F /  13.4 °C 54.8 °F /  12.7 °C 29.85in /  1010.7hPa Calm   1.0mph /  1.6km/h 95% 0.00in /  0mm
06:34 56.1 °F /  13.4 °C 54.7 °F /  12.6 °C 29.85in /  1010.7hPa Calm     95% 0.00in /  0mm
06:39 55.9 °F /  13.3 °C 54.5 °F /  12.5 °C 29.85in /  1010.7hPa Calm     95% 0.00in /  0mm
06:44 55.8 °F /  13.2 °C 54.4 °F /  12.4 °C 29.85in /  1010.7hPa Calm     95% 0.00in /  0mm
06:50 55.6 °F /  13.1 °C 54.2 °F /  12.3 °C 29.85in /  1010.7hPa SSE 1.0mph /  1.6km/h 1.0mph /  1.6km/h 95% 0.00in /  0mm
06:55 55.8 °F /  13.2 °C 54.4 °F /  12.4 °C 29.85in /  1010.7hPa ESE 2.0mph /  3.2km/h 3.0mph /  4.8km/h 95% 0.00in /  0mm
07:00 56.3 °F /  13.5 °C 54.9 °F /  12.7 °C 29.85in /  1010.7hPa ESE 2.0mph /  3.2km/h 3.0mph /  4.8km/h 95% 0.00in /  0mm
07:05 56.4 °F /  13.6 °C 55.0 °F /  12.8 °C 29.85in /  1010.7hPa SE 2.0mph /  3.2km/h 4.0mph /  6.4km/h 95% 0.00in /  0mm
07:10 55.9 °F /  13.3 °C 54.5 °F /  12.5 °C 29.85in /  1010.7hPa ESE 3.0mph /  4.8km/h 3.0mph /  4.8km/h 95% 0.00in /  0mm
07:15 55.3 °F /  12.9 °C 53.9 °F /  12.2 °C 29.85in /  1010.7hPa East 2.0mph /  3.2km/h 3.0mph /  4.8km/h 95% 0.00in /  0mm
07:20 55.0 °F /  12.8 °C 53.6 °F /  12 °C 29.85in /  1010.7hPa ESE 3.0mph /  4.8km/h 3.0mph /  4.8km/h 95% 0.00in /  0mm
07:25 55.1 °F /  12.8 °C 53.7 °F /  12.1 °C 29.85in /  1010.7hPa East 3.0mph /  4.8km/h 3.0mph /  4.8km/h 95% 0.00in /  0mm
07:30 55.0 °F /  12.8 °C 53.6 °F /  12 °C 29.85in /  1010.7hPa ESE 3.0mph /  4.8km/h 3.0mph /  4.8km/h 95% 0.00in /  0mm
07:35 55.0 °F /  12.8 °C 53.6 °F /  12 °C 29.85in /  1010.7hPa ESE 3.0mph /  4.8km/h 4.0mph /  6.4km/h 95% 0.00in /  0mm
07:40 55.1 °F /  12.8 °C 53.7 °F /  12.1 °C 29.85in /  1010.7hPa ESE 3.0mph /  4.8km/h 4.0mph /  6.4km/h 95% 0.00in /  0mm
07:45 55.3 °F /  12.9 °C 53.9 °F /  12.2 °C 29.85in /  1010.7hPa ESE 3.0mph /  4.8km/h 4.0mph /  6.4km/h 95% 0.00in /  0mm
07:50 55.5 °F /  13.1 °C 54.1 °F /  12.3 °C 29.86in /  1011.1hPa SE 2.0mph /  3.2km/h 4.0mph /  6.4km/h 95% 0.00in /  0mm
07:56 55.7 °F /  13.2 °C 54.3 °F /  12.4 °C 29.86in /  1011.1hPa ESE 2.0mph /  3.2km/h 4.0mph /  6.4km/h 95% 0.00in /  0mm
08:01 55.9 °F /  13.3 °C 54.5 °F /  12.5 °C 29.86in /  1011.1hPa ESE 2.0mph /  3.2km/h 3.0mph /  4.8km/h 95% 0.00in /  0mm
08:06 56.1 °F /  13.4 °C 54.7 °F /  12.6 °C 29.86in /  1011.1hPa ESE 3.0mph /  4.8km/h 3.0mph /  4.8km/h 95% 0.00in /  0mm
08:11 56.6 °F /  13.7 °C 55.2 °F /  12.9 °C 29.86in /  1011.1hPa SE 2.0mph /  3.2km/h 3.0mph /  4.8km/h 95% 0.00in /  0mm
08:16 57.0 °F /  13.9 °C 55.6 °F /  13.1 °C 29.86in /  1011.1hPa ESE 4.0mph /  6.4km/h 4.0mph /  6.4km/h 95% 0.00in /  0mm
08:21 57.5 °F /  14.2 °C 56.1 °F /  13.4 °C 29.86in /  1011.1hPa ESE 4.0mph /  6.4km/h 4.0mph /  6.4km/h 95% 0.00in /  0mm
08:26 57.8 °F /  14.3 °C 56.4 °F /  13.6 °C 29.86in /  1011.1hPa SE 2.0mph /  3.2km/h 5.0mph /  8km/h 95% 0.00in /  0mm
08:31 58.1 °F /  14.5 °C 56.7 °F /  13.7 °C 29.87in /  1011.4hPa SSE 3.0mph /  4.8km/h 4.0mph /  6.4km/h 95% 0.00in /  0mm
08:36 58.2 °F /  14.6 °C 56.8 °F /  13.8 °C 29.87in /  1011.4hPa ESE 4.0mph /  6.4km/h 5.0mph /  8km/h 95% 0.00in /  0mm
08:41 58.4 °F /  14.7 °C 57.0 °F /  13.9 °C 29.87in /  1011.4hPa ESE 3.0mph /  4.8km/h 5.0mph /  8km/h 95% 0.00in /  0mm
08:46 58.6 °F /  14.8 °C 57.2 °F /  14 °C 29.87in /  1011.4hPa ESE 5.0mph /  8km/h 6.0mph /  9.7km/h 95% 0.00in /  0mm
08:51 58.7 °F /  14.8 °C 57.3 °F /  14.1 °C 29.87in /  1011.4hPa SE 6.0mph /  9.7km/h 6.0mph /  9.7km/h 95% 0.00in /  0mm
08:56 58.8 °F /  14.9 °C 57.4 °F /  14.1 °C 29.87in /  1011.4hPa SE 4.0mph /  6.4km/h 6.0mph /  9.7km/h 95% 0.00in /  0mm
09:01 59.0 °F /  15 °C 57.6 °F /  14.2 °C 29.87in /  1011.4hPa SE 4.0mph /  6.4km/h 6.0mph /  9.7km/h 95% 0.00in /  0mm
09:06 59.1 °F /  15.1 °C 57.7 °F /  14.3 °C 29.87in /  1011.4hPa SSE 3.0mph /  4.8km/h 4.0mph /  6.4km/h 95% 0.00in /  0mm
09:11 59.4 °F /  15.2 °C 58.0 °F /  14.4 °C 29.87in /  1011.4hPa ESE 5.0mph /  8km/h 6.0mph /  9.7km/h 95% 0.00in /  0mm
09:16 59.7 °F /  15.4 °C 58.3 °F /  14.6 °C 29.87in /  1011.4hPa SSE 3.0mph /  4.8km/h 7.0mph /  11.3km/h 95% 0.00in /  0mm
09:22 59.9 °F /  15.5 °C 58.5 °F /  14.7 °C 29.87in /  1011.4hPa SE 5.0mph /  8km/h 7.0mph /  11.3km/h 95% 0.00in /  0mm
09:27 60.0 °F /  15.6 °C 58.6 °F /  14.8 °C 29.87in /  1011.4hPa South 7.0mph /  11.3km/h 7.0mph /  11.3km/h 95% 0.00in /  0mm
09:32 60.1 °F /  15.6 °C 58.7 °F /  14.8 °C 29.87in /  1011.4hPa SE 5.0mph /  8km/h 8.0mph /  12.9km/h 95% 0.00in /  0mm
09:36 60.3 °F /  15.7 °C 58.9 °F /  14.9 °C 29.87in /  1011.4hPa East 7.0mph /  11.3km/h 7.0mph /  11.3km/h 95% 0.00in /  0mm
09:42 60.4 °F /  15.8 °C 59.0 °F /  15 °C 29.87in /  1011.4hPa SE 4.0mph /  6.4km/h 9.0mph /  14.5km/h 95% 0.00in /  0mm
09:47 60.6 °F /  15.9 °C 59.2 °F /  15.1 °C 29.87in /  1011.4hPa SE 4.0mph /  6.4km/h 7.0mph /  11.3km/h 95% 0.00in /  0mm
09:52 60.7 °F /  15.9 °C 59.0 °F /  15 °C 29.87in /  1011.4hPa ESE 5.0mph /  8km/h 8.0mph /  12.9km/h 94% 0.00in /  0mm
09:57 60.8 °F /  16 °C 59.1 °F /  15.1 °C 29.88in /  1011.7hPa SSE 5.0mph /  8km/h 7.0mph /  11.3km/h 94% 0.00in /  0mm
10:02 60.9 °F /  16.1 °C 59.2 °F /  15.1 °C 29.88in /  1011.7hPa SSE 5.0mph /  8km/h 7.0mph /  11.3km/h 94% 0.00in /  0mm
10:07 60.9 °F /  16.1 °C 59.2 °F /  15.1 °C 29.88in /  1011.7hPa SE 5.0mph /  8km/h 13.0mph /  20.9km/h 94% 0.00in /  0mm
10:12 61.1 °F /  16.2 °C 59.4 °F /  15.2 °C 29.88in /  1011.7hPa SE 11.0mph /  17.7km/h 11.0mph /  17.7km/h 94% 0.00in /  0mm
10:17 61.2 °F /  16.2 °C 59.5 °F /  15.3 °C 29.88in /  1011.7hPa South 8.0mph /  12.9km/h 10.0mph /  16.1km/h 94% 0.00in /  0mm
10:22 61.3 °F /  16.3 °C 59.6 °F /  15.3 °C 29.88in /  1011.7hPa SE 5.0mph /  8km/h 9.0mph /  14.5km/h 94% 0.00in /  0mm
10:27 61.3 °F /  16.3 °C 59.3 °F /  15.2 °C 29.88in /  1011.7hPa SSE 7.0mph /  11.3km/h 8.0mph /  12.9km/h 93% 0.00in /  0mm
10:32 61.3 °F /  16.3 °C 59.3 °F /  15.2 °C 29.89in /  1012.1hPa SSE 7.0mph /  11.3km/h 9.0mph /  14.5km/h 93% 0.00in /  0mm
10:37 61.4 °F /  16.3 °C 59.4 °F /  15.2 °C 29.89in /  1012.1hPa ESE 4.0mph /  6.4km/h 6.0mph /  9.7km/h 93% 0.00in /  0mm
10:42 61.5 °F /  16.4 °C 59.5 °F /  15.3 °C 29.89in /  1012.1hPa SSE 3.0mph /  4.8km/h 7.0mph /  11.3km/h 93% 0.00in /  0mm
10:47 61.6 °F /  16.4 °C 59.6 °F /  15.3 °C 29.89in /  1012.1hPa SSE 7.0mph /  11.3km/h 9.0mph /  14.5km/h 93% 0.00in /  0mm
10:52 61.6 °F /  16.4 °C 59.6 °F /  15.3 °C 29.89in /  1012.1hPa SSE 4.0mph /  6.4km/h 6.0mph /  9.7km/h 93% 0.00in /  0mm
10:53 61.6 °F /  16.4 °C 59.6 °F /  15.3 °C 29.89in /  1012.1hPa SSE 4.0mph /  6.4km/h 6.0mph /  9.7km/h 93% 0.00in /  0mm
10:58 61.9 °F /  16.6 °C 59.9 °F /  15.5 °C 29.89in /  1012.1hPa SSE 4.0mph /  6.4km/h 5.0mph /  8km/h 93% 0.00in /  0mm
11:03 61.8 °F /  16.6 °C 59.8 °F /  15.4 °C 29.89in /  1012.1hPa SSE 4.0mph /  6.4km/h 4.0mph /  6.4km/h 93% 0.00in /  0mm
11:08 61.9 °F /  16.6 °C 59.9 °F /  15.5 °C 29.89in /  1012.1hPa SSE 3.0mph /  4.8km/h 9.0mph /  14.5km/h 93% 0.00in /  0mm
11:13 61.9 °F /  16.6 °C 59.9 °F /  15.5 °C 29.89in /  1012.1hPa SSW 4.0mph /  6.4km/h 7.0mph /  11.3km/h 93% 0.00in /  0mm
11:18 62.0 °F /  16.7 °C 60.0 °F /  15.6 °C 29.89in /  1012.1hPa SSE 2.0mph /  3.2km/h 7.0mph /  11.3km/h 93% 0.00in /  0mm
11:23 62.1 °F /  16.7 °C 60.1 °F /  15.6 °C 29.89in /  1012.1hPa South 5.0mph /  8km/h 6.0mph /  9.7km/h 93% 0.00in /  0mm
11:28 62.4 °F /  16.9 °C 60.0 °F /  15.6 °C 29.89in /  1012.1hPa SSE 5.0mph /  8km/h 8.0mph /  12.9km/h 92% 0.00in /  0mm
11:33 62.7 °F /  17.1 °C 60.3 °F /  15.7 °C 29.89in /  1012.1hPa SSE 6.0mph /  9.7km/h 8.0mph /  12.9km/h 92% 0.00in /  0mm
11:38 62.9 °F /  17.2 °C 60.5 °F /  15.8 °C 29.89in /  1012.1hPa SSE 3.0mph /  4.8km/h 5.0mph /  8km/h 92% 0.00in /  0mm
11:43 63.0 °F /  17.2 °C 60.3 °F /  15.7 °C 29.89in /  1012.1hPa SSE 5.0mph /  8km/h 7.0mph /  11.3km/h 91% 0.00in /  0mm
11:48 63.3 °F /  17.4 °C 60.6 °F /  15.9 °C 29.89in /  1012.1hPa South 2.0mph /  3.2km/h 4.0mph /  6.4km/h 91% 0.00in /  0mm
11:53 63.6 °F /  17.6 °C 60.9 °F /  16.1 °C 29.89in /  1012.1hPa SW 6.0mph /  9.7km/h 6.0mph /  9.7km/h 91% 0.00in /  0mm
11:58 63.7 °F /  17.6 °C 61.0 °F /  16.1 °C 29.89in /  1012.1hPa South 4.0mph /  6.4km/h 6.0mph /  9.7km/h 91% 0.00in /  0mm
12:03 63.9 °F /  17.7 °C 60.9 °F /  16.1 °C 29.89in /  1012.1hPa SSE 4.0mph /  6.4km/h 6.0mph /  9.7km/h 90% 0.00in /  0mm
12:08 64.1 °F /  17.8 °C 61.1 °F /  16.2 °C 29.88in /  1011.7hPa SSE 3.0mph /  4.8km/h 8.0mph /  12.9km/h 90% 0.00in /  0mm
12:13 64.9 °F /  18.3 °C 61.9 °F /  16.6 °C 29.88in /  1011.7hPa SE 3.0mph /  4.8km/h 6.0mph /  9.7km/h 90% 0.00in /  0mm
12:18 66.0 °F /  18.9 °C 62.7 °F /  17.1 °C 29.88in /  1011.7hPa SE 5.0mph /  8km/h 8.0mph /  12.9km/h 89% 0.00in /  0mm
12:23 66.7 °F /  19.3 °C 62.4 °F /  16.9 °C 29.87in /  1011.4hPa SSE 6.0mph /  9.7km/h 9.0mph /  14.5km/h 86% 0.00in /  0mm
12:28 67.3 °F /  19.6 °C 62.3 °F /  16.8 °C 29.87in /  1011.4hPa SSE 4.0mph /  6.4km/h 10.0mph /  16.1km/h 84% 0.00in /  0mm
12:33 67.9 °F /  19.9 °C 62.5 °F /  16.9 °C 29.87in /  1011.4hPa South 6.0mph /  9.7km/h 9.0mph /  14.5km/h 83% 0.00in /  0mm
12:39 67.5 °F /  19.7 °C 61.8 °F /  16.6 °C 29.87in /  1011.4hPa South 7.0mph /  11.3km/h 7.0mph /  11.3km/h 82% 0.00in /  0mm
12:44 67.7 °F /  19.8 °C 62.0 °F /  16.7 °C 29.87in /  1011.4hPa SW 4.0mph /  6.4km/h 7.0mph /  11.3km/h 82% 0.00in /  0mm
12:49 68.1 °F /  20.1 °C 62.8 °F /  17.1 °C 29.87in /  1011.4hPa SE 4.0mph /  6.4km/h 6.0mph /  9.7km/h 83% 0.00in /  0mm
12:54 68.4 °F /  20.2 °C 62.7 °F /  17.1 °C 29.87in /  1011.4hPa SSW 3.0mph /  4.8km/h 9.0mph /  14.5km/h 82% 0.00in /  0mm
12:59 69.0 °F /  20.6 °C 61.9 °F /  16.6 °C 29.86in /  1011.1hPa SSE 5.0mph /  8km/h 7.0mph /  11.3km/h 78% 0.00in /  0mm
13:04 69.8 °F /  21 °C 62.6 °F /  17 °C 29.86in /  1011.1hPa SW 4.0mph /  6.4km/h 7.0mph /  11.3km/h 78% 0.00in /  0mm
13:09 70.5 °F /  21.4 °C 62.6 °F /  17 °C 29.86in /  1011.1hPa SW 5.0mph /  8km/h 7.0mph /  11.3km/h 76% 0.00in /  0mm
13:14 70.0 °F /  21.1 °C 61.3 °F /  16.3 °C 29.86in /  1011.1hPa South 6.0mph /  9.7km/h 6.0mph /  9.7km/h 74% 0.00in /  0mm
13:15 69.9 °F /  21.1 °C 61.6 °F /  16.4 °C 29.86in /  1011.1hPa SW 3.0mph /  4.8km/h 6.0mph /  9.7km/h 75% 0.00in /  0mm
13:20 69.6 °F /  20.9 °C 61.7 °F /  16.5 °C 29.86in /  1011.1hPa SSE 3.0mph /  4.8km/h 7.0mph /  11.3km/h 76% 0.00in /  0mm
13:25 69.4 °F /  20.8 °C 61.1 °F /  16.2 °C 29.86in /  1011.1hPa SE 3.0mph /  4.8km/h 6.0mph /  9.7km/h 75% 0.00in /  0mm
13:30 69.9 °F /  21.1 °C 61.2 °F /  16.2 °C 29.85in /  1010.7hPa South 4.0mph /  6.4km/h 8.0mph /  12.9km/h 74% 0.00in /  0mm
13:35 70.2 °F /  21.2 °C 61.9 °F /  16.6 °C 29.85in /  1010.7hPa SSW 5.0mph /  8km/h 7.0mph /  11.3km/h 75% 0.00in /  0mm
13:40 71.4 °F /  21.9 °C 63.8 °F /  17.7 °C 29.85in /  1010.7hPa SE 9.0mph /  14.5km/h 9.0mph /  14.5km/h 77% 0.00in /  0mm
13:45 71.2 °F /  21.8 °C 62.1 °F /  16.7 °C 29.85in /  1010.7hPa SSE 6.0mph /  9.7km/h 10.0mph /  16.1km/h 73% 0.00in /  0mm
13:46 71.1 °F /  21.7 °C 62.0 °F /  16.7 °C 29.85in /  1010.7hPa SE 5.0mph /  8km/h 9.0mph /  14.5km/h 73% 0.00in /  0mm
13:51 71.7 °F /  22.1 °C 61.8 °F /  16.6 °C 29.84in /  1010.4hPa SW 6.0mph /  9.7km/h 8.0mph /  12.9km/h 71% 0.00in /  0mm
13:56 71.6 °F /  22 °C 61.3 °F /  16.3 °C 29.84in /  1010.4hPa SE 8.0mph /  12.9km/h 10.0mph /  16.1km/h 70% 0.00in /  0mm
14:01 71.4 °F /  21.9 °C 61.5 °F /  16.4 °C 29.84in /  1010.4hPa SSE 8.0mph /  12.9km/h 9.0mph /  14.5km/h 71% 0.00in /  0mm
14:06 71.0 °F /  21.7 °C 60.7 °F /  15.9 °C 29.84in /  1010.4hPa SE 9.0mph /  14.5km/h 12.0mph /  19.3km/h 70% 0.00in /  0mm
14:11 70.7 °F /  21.5 °C 60.8 °F /  16 °C 29.84in /  1010.4hPa South 5.0mph /  8km/h 10.0mph /  16.1km/h 71% 0.00in /  0mm
14:16 70.8 °F /  21.6 °C 58.0 °F /  14.4 °C 29.83in /  1010hPa SSE 2.0mph /  3.2km/h 9.0mph /  14.5km/h 64% 0.00in /  0mm
14:21 71.1 °F /  21.7 °C 59.6 °F /  15.3 °C 29.83in /  1010hPa WSW 5.0mph /  8km/h 8.0mph /  12.9km/h 67% 0.00in /  0mm
14:26 72.2 °F /  22.3 °C 59.4 °F /  15.2 °C 29.83in /  1010hPa SSW 3.0mph /  4.8km/h 8.0mph /  12.9km/h 64% 0.00in /  0mm
14:31 72.4 °F /  22.4 °C 59.1 °F /  15.1 °C 29.83in /  1010hPa SSE 10.0mph /  16.1km/h 10.0mph /  16.1km/h 63% 0.00in /  0mm
14:36 73.1 °F /  22.8 °C 57.5 °F /  14.2 °C 29.83in /  1010hPa SSW 2.0mph /  3.2km/h 9.0mph /  14.5km/h 58% 0.00in /  0mm
14:41 73.2 °F /  22.9 °C 59.4 °F /  15.2 °C 29.82in /  1009.7hPa SSW 3.0mph /  4.8km/h 5.0mph /  8km/h 62% 0.00in /  0mm
14:46 72.3 °F /  22.4 °C 58.6 °F /  14.8 °C 29.82in /  1009.7hPa SW 8.0mph /  12.9km/h 8.0mph /  12.9km/h 62% 0.00in /  0mm
14:51 71.6 °F /  22 °C 58.8 °F /  14.9 °C 29.83in /  1010hPa SW 4.0mph /  6.4km/h 10.0mph /  16.1km/h 64% 0.00in /  0mm
14:57 72.0 °F /  22.2 °C 60.0 °F /  15.6 °C 29.82in /  1009.7hPa SW 3.0mph /  4.8km/h 8.0mph /  12.9km/h 66% 0.00in /  0mm
15:02 72.8 °F /  22.7 °C 59.0 °F /  15 °C 29.82in /  1009.7hPa SW 8.0mph /  12.9km/h 10.0mph /  16.1km/h 62% 0.00in /  0mm
15:07 73.0 °F /  22.8 °C 61.4 °F /  16.3 °C 29.82in /  1009.7hPa SW 5.0mph /  8km/h 6.0mph /  9.7km/h 67% 0.00in /  0mm
15:12 73.7 °F /  23.2 °C 60.8 °F /  16 °C 29.81in /  1009.4hPa SW 5.0mph /  8km/h 9.0mph /  14.5km/h 64% 0.00in /  0mm
15:17 73.7 °F /  23.2 °C 59.4 °F /  15.2 °C 29.81in /  1009.4hPa ESE 6.0mph /  9.7km/h 9.0mph /  14.5km/h 61% 0.00in /  0mm
15:22 73.2 °F /  22.9 °C 59.0 °F /  15 °C 29.81in /  1009.4hPa SSW 7.0mph /  11.3km/h 10.0mph /  16.1km/h 61% 0.00in /  0mm
15:27 73.4 °F /  23 °C 60.0 °F /  15.6 °C 29.81in /  1009.4hPa South 3.0mph /  4.8km/h 8.0mph /  12.9km/h 63% 0.00in /  0mm
15:32 73.6 °F /  23.1 °C 60.2 °F /  15.7 °C 29.81in /  1009.4hPa SSW 4.0mph /  6.4km/h 9.0mph /  14.5km/h 63% 0.00in /  0mm
15:37 73.7 °F /  23.2 °C 59.0 °F /  15 °C 29.81in /  1009.4hPa SW 5.0mph /  8km/h 7.0mph /  11.3km/h 60% 0.00in /  0mm
15:42 73.1 °F /  22.8 °C 58.9 °F /  14.9 °C 29.81in /  1009.4hPa SSE 3.0mph /  4.8km/h 7.0mph /  11.3km/h 61% 0.00in /  0mm
15:47 72.7 °F /  22.6 °C 59.4 °F /  15.2 °C 29.80in /  1009hPa SSE 3.0mph /  4.8km/h 6.0mph /  9.7km/h 63% 0.00in /  0mm
15:48 72.7 °F /  22.6 °C 59.4 °F /  15.2 °C 29.80in /  1009hPa SSE 2.0mph /  3.2km/h 6.0mph /  9.7km/h 63% 0.00in /  0mm
15:53 73.0 °F /  22.8 °C 59.7 °F /  15.4 °C 29.80in /  1009hPa SSW 3.0mph /  4.8km/h 6.0mph /  9.7km/h 63% 0.00in /  0mm
15:58 74.1 °F /  23.4 °C 58.9 °F /  14.9 °C 29.79in /  1008.7hPa WSW 4.0mph /  6.4km/h 7.0mph /  11.3km/h 59% 0.00in /  0mm
15:59 74.1 °F /  23.4 °C 58.9 °F /  14.9 °C 29.79in /  1008.7hPa WSW 2.0mph /  3.2km/h 7.0mph /  11.3km/h 59% 0.00in /  0mm
16:04 74.7 °F /  23.7 °C 59.4 °F /  15.2 °C 29.79in /  1008.7hPa SSE 6.0mph /  9.7km/h 8.0mph /  12.9km/h 59% 0.00in /  0mm
16:09 75.1 °F /  23.9 °C 59.3 °F /  15.2 °C 29.79in /  1008.7hPa SW 5.0mph /  8km/h 9.0mph /  14.5km/h 58% 0.00in /  0mm
16:14 75.1 °F /  23.9 °C 58.8 °F /  14.9 °C 29.79in /  1008.7hPa SSW 5.0mph /  8km/h 10.0mph /  16.1km/h 57% 0.00in /  0mm
16:19 74.3 °F /  23.5 °C 57.1 °F /  13.9 °C 29.78in /  1008.4hPa South 3.0mph /  4.8km/h 6.0mph /  9.7km/h 55% 0.00in /  0mm
16:24 74.8 °F /  23.8 °C 57.6 °F /  14.2 °C 29.78in /  1008.4hPa South 3.0mph /  4.8km/h 7.0mph /  11.3km/h 55% 0.00in /  0mm
16:29 75.2 °F /  24 °C 57.9 °F /  14.4 °C 29.78in /  1008.4hPa SSW 8.0mph /  12.9km/h 11.0mph /  17.7km/h 55% 0.00in /  0mm
16:34 75.3 °F /  24.1 °C 57.0 °F /  13.9 °C 29.78in /  1008.4hPa SSE 6.0mph /  9.7km/h 8.0mph /  12.9km/h 53% 0.00in /  0mm
16:39 75.2 °F /  24 °C 56.4 °F /  13.6 °C 29.77in /  1008hPa South 3.0mph /  4.8km/h 9.0mph /  14.5km/h 52% 0.00in /  0mm
16:44 75.0 °F /  23.9 °C 56.7 °F /  13.7 °C 29.77in /  1008hPa SE 4.0mph /  6.4km/h 12.0mph /  19.3km/h 53% 0.00in /  0mm
16:49 74.7 °F /  23.7 °C 58.0 °F /  14.4 °C 29.76in /  1007.7hPa SSE 8.0mph /  12.9km/h 8.0mph /  12.9km/h 56% 0.00in /  0mm
16:54 75.0 °F /  23.9 °C 58.8 °F /  14.9 °C 29.76in /  1007.7hPa SW 4.0mph /  6.4km/h 7.0mph /  11.3km/h 57% 0.00in /  0mm
16:59 75.1 °F /  23.9 °C 58.3 °F /  14.6 °C 29.76in /  1007.7hPa SSE 5.0mph /  8km/h 12.0mph /  19.3km/h 56% 0.00in /  0mm
17:04 74.6 °F /  23.7 °C 56.9 °F /  13.8 °C 29.76in /  1007.7hPa SE 4.0mph /  6.4km/h 10.0mph /  16.1km/h 54% 0.00in /  0mm
17:09 75.0 °F /  23.9 °C 57.8 °F /  14.3 °C 29.76in /  1007.7hPa SSE 7.0mph /  11.3km/h 8.0mph /  12.9km/h 55% 0.00in /  0mm
17:14 75.3 °F /  24.1 °C 59.0 °F /  15 °C 29.76in /  1007.7hPa SE 5.0mph /  8km/h 9.0mph /  14.5km/h 57% 0.00in /  0mm
17:19 74.6 °F /  23.7 °C 58.9 °F /  14.9 °C 29.76in /  1007.7hPa South 6.0mph /  9.7km/h 11.0mph /  17.7km/h 58% 0.00in /  0mm
17:24 73.7 °F /  23.2 °C 58.0 °F /  14.4 °C 29.76in /  1007.7hPa SSW 5.0mph /  8km/h 11.0mph /  17.7km/h 58% 0.00in /  0mm
17:29 73.3 °F /  22.9 °C 59.0 °F /  15 °C 29.76in /  1007.7hPa SE 3.0mph /  4.8km/h 7.0mph /  11.3km/h 61% 0.00in /  0mm
17:34 72.9 °F /  22.7 °C 59.1 °F /  15.1 °C 29.76in /  1007.7hPa SSE 4.0mph /  6.4km/h 8.0mph /  12.9km/h 62% 0.00in /  0mm
17:39 72.8 °F /  22.7 °C 59.0 °F /  15 °C 29.76in /  1007.7hPa SE 5.0mph /  8km/h 6.0mph /  9.7km/h 62% 0.00in /  0mm
17:44 73.0 °F /  22.8 °C 58.3 °F /  14.6 °C 29.76in /  1007.7hPa SSW 7.0mph /  11.3km/h 8.0mph /  12.9km/h 60% 0.00in /  0mm
17:49 72.9 °F /  22.7 °C 59.1 °F /  15.1 °C 29.76in /  1007.7hPa SSE 6.0mph /  9.7km/h 6.0mph /  9.7km/h 62% 0.00in /  0mm
17:50 72.9 °F /  22.7 °C 59.1 °F /  15.1 °C 29.76in /  1007.7hPa SSE 5.0mph /  8km/h 6.0mph /  9.7km/h 62% 0.00in /  0mm
17:55 72.5 °F /  22.5 °C 57.8 °F /  14.3 °C 29.76in /  1007.7hPa SSE 4.0mph /  6.4km/h 8.0mph /  12.9km/h 60% 0.00in /  0mm
17:56 72.4 °F /  22.4 °C 58.2 °F /  14.6 °C 29.76in /  1007.7hPa SSE 5.0mph /  8km/h 8.0mph /  12.9km/h 61% 0.00in /  0mm
18:01 72.3 °F /  22.4 °C 58.1 °F /  14.5 °C 29.76in /  1007.7hPa SSE 5.0mph /  8km/h 8.0mph /  12.9km/h 61% 0.00in /  0mm
18:06 72.2 °F /  22.3 °C 58.9 °F /  14.9 °C 29.76in /  1007.7hPa SSE 5.0mph /  8km/h 6.0mph /  9.7km/h 63% 0.00in /  0mm
18:11 72.1 °F /  22.3 °C 58.4 °F /  14.7 °C 29.76in /  1007.7hPa SE 3.0mph /  4.8km/h 6.0mph /  9.7km/h 62% 0.00in /  0mm
18:16 72.1 °F /  22.3 °C 57.9 °F /  14.4 °C 29.75in /  1007.3hPa SE 4.0mph /  6.4km/h 6.0mph /  9.7km/h 61% 0.00in /  0mm
18:21 72.1 °F /  22.3 °C 58.8 °F /  14.9 °C 29.75in /  1007.3hPa SE 4.0mph /  6.4km/h 6.0mph /  9.7km/h 63% 0.00in /  0mm
18:26 72.2 °F /  22.3 °C 58.5 °F /  14.7 °C 29.75in /  1007.3hPa SSE 4.0mph /  6.4km/h 7.0mph /  11.3km/h 62% 0.00in /  0mm
18:31 72.2 °F /  22.3 °C 58.5 °F /  14.7 °C 29.75in /  1007.3hPa SE 4.0mph /  6.4km/h 5.0mph /  8km/h 62% 0.00in /  0mm
18:36 72.1 °F /  22.3 °C 58.4 °F /  14.7 °C 29.75in /  1007.3hPa SE 5.0mph /  8km/h 7.0mph /  11.3km/h 62% 0.00in /  0mm
18:37 72.0 °F /  22.2 °C 58.7 °F /  14.8 °C 29.75in /  1007.3hPa SE 2.0mph /  3.2km/h 7.0mph /  11.3km/h 63% 0.00in /  0mm
18:42 72.0 °F /  22.2 °C 58.7 °F /  14.8 °C 29.74in /  1007hPa SE 5.0mph /  8km/h 6.0mph /  9.7km/h 63% 0.00in /  0mm
18:47 72.1 °F /  22.3 °C 58.4 °F /  14.7 °C 29.74in /  1007hPa SSE 4.0mph /  6.4km/h 6.0mph /  9.7km/h 62% 0.00in /  0mm
18:48 72.1 °F /  22.3 °C 58.4 °F /  14.7 °C 29.74in /  1007hPa SE 3.0mph /  4.8km/h 6.0mph /  9.7km/h 62% 0.00in /  0mm
18:53 72.1 °F /  22.3 °C 59.3 °F /  15.2 °C 29.74in /  1007hPa SSE 3.0mph /  4.8km/h 6.0mph /  9.7km/h 64% 0.00in /  0mm
18:58 72.2 °F /  22.3 °C 58.9 °F /  14.9 °C 29.74in /  1007hPa SE 5.0mph /  8km/h 8.0mph /  12.9km/h 63% 0.00in /  0mm
19:03 72.2 °F /  22.3 °C 59.4 °F /  15.2 °C 29.74in /  1007hPa SE 8.0mph /  12.9km/h 8.0mph /  12.9km/h 64% 0.00in /  0mm
19:08 72.0 °F /  22.2 °C 58.3 °F /  14.6 °C 29.73in /  1006.7hPa SSE 7.0mph /  11.3km/h 7.0mph /  11.3km/h 62% 0.00in /  0mm
19:13 71.5 °F /  21.9 °C 58.3 °F /  14.6 °C 29.73in /  1006.7hPa SE 4.0mph /  6.4km/h 7.0mph /  11.3km/h 63% 0.00in /  0mm
19:18 71.0 °F /  21.7 °C 58.7 °F /  14.8 °C 29.73in /  1006.7hPa SE 3.0mph /  4.8km/h 6.0mph /  9.7km/h 65% 0.00in /  0mm
19:23 70.7 °F /  21.5 °C 58.8 °F /  14.9 °C 29.73in /  1006.7hPa ESE 3.0mph /  4.8km/h 4.0mph /  6.4km/h 66% 0.00in /  0mm
19:28 70.5 °F /  21.4 °C 58.6 °F /  14.8 °C 29.73in /  1006.7hPa SE 1.0mph /  1.6km/h 4.0mph /  6.4km/h 66% 0.00in /  0mm
19:33 70.4 °F /  21.3 °C 58.9 °F /  14.9 °C 29.74in /  1007hPa SSE 4.0mph /  6.4km/h 5.0mph /  8km/h 67% 0.00in /  0mm
19:38 70.4 °F /  21.3 °C 58.5 °F /  14.7 °C 29.74in /  1007hPa SE 4.0mph /  6.4km/h 6.0mph /  9.7km/h 66% 0.00in /  0mm
19:44 70.1 °F /  21.2 °C 58.7 °F /  14.8 °C 29.74in /  1007hPa SE 3.0mph /  4.8km/h 4.0mph /  6.4km/h 67% 0.00in /  0mm
19:49 69.7 °F /  20.9 °C 58.7 °F /  14.8 °C 29.74in /  1007hPa SSE 4.0mph /  6.4km/h 4.0mph /  6.4km/h 68% 0.00in /  0mm
19:54 69.4 °F /  20.8 °C 58.4 °F /  14.7 °C 29.74in /  1007hPa SSE 4.0mph /  6.4km/h 5.0mph /  8km/h 68% 0.00in /  0mm
19:59 68.9 °F /  20.5 °C 58.3 °F /  14.6 °C 29.74in /  1007hPa SE 3.0mph /  4.8km/h 3.0mph /  4.8km/h 69% 0.00in /  0mm
20:04 68.4 °F /  20.2 °C 58.2 °F /  14.6 °C 29.74in /  1007hPa SE 2.0mph /  3.2km/h 3.0mph /  4.8km/h 70% 0.00in /  0mm
20:09 68.0 °F /  20 °C 58.3 °F /  14.6 °C 29.74in /  1007hPa SE 2.0mph /  3.2km/h 3.0mph /  4.8km/h 71% 0.00in /  0mm
20:14 67.6 °F /  19.8 °C 57.9 °F /  14.4 °C 29.74in /  1007hPa SE 2.0mph /  3.2km/h 3.0mph /  4.8km/h 71% 0.00in /  0mm
20:19 67.4 °F /  19.7 °C 57.7 °F /  14.3 °C 29.74in /  1007hPa SE 3.0mph /  4.8km/h 3.0mph /  4.8km/h 71% 0.00in /  0mm
20:24 67.3 °F /  19.6 °C 57.6 °F /  14.2 °C 29.74in /  1007hPa SE 3.0mph /  4.8km/h 3.0mph /  4.8km/h 71% 0.00in /  0mm
20:29 67.3 °F /  19.6 °C 57.6 °F /  14.2 °C 29.74in /  1007hPa SE 2.0mph /  3.2km/h 3.0mph /  4.8km/h 71% 0.00in /  0mm
20:34 67.2 °F /  19.6 °C 57.5 °F /  14.2 °C 29.75in /  1007.3hPa Calm   3.0mph /  4.8km/h 71% 0.00in /  0mm
20:39 66.7 °F /  19.3 °C 57.4 °F /  14.1 °C 29.75in /  1007.3hPa Calm   1.0mph /  1.6km/h 72% 0.00in /  0mm
20:44 66.5 °F /  19.2 °C 57.2 °F /  14 °C 29.75in /  1007.3hPa Calm   1.0mph /  1.6km/h 72% 0.00in /  0mm
20:49 66.1 °F /  18.9 °C 57.6 °F /  14.2 °C 29.75in /  1007.3hPa Calm     74% 0.00in /  0mm
20:54 65.7 °F /  18.7 °C 57.6 °F /  14.2 °C 29.75in /  1007.3hPa Calm     75% 0.00in /  0mm
20:59 65.3 °F /  18.5 °C 57.2 °F /  14 °C 29.75in /  1007.3hPa Calm     75% 0.00in /  0mm
21:04 65.0 °F /  18.3 °C 56.9 °F /  13.8 °C 29.75in /  1007.3hPa Calm     75% 0.00in /  0mm
21:09 64.9 °F /  18.3 °C 57.2 °F /  14 °C 29.76in /  1007.7hPa Calm     76% 0.00in /  0mm
21:14 64.6 °F /  18.1 °C 56.9 °F /  13.8 °C 29.76in /  1007.7hPa Calm     76% 0.00in /  0mm
21:19 64.2 °F /  17.9 °C 56.8 °F /  13.8 °C 29.76in /  1007.7hPa Calm   1.0mph /  1.6km/h 77% 0.00in /  0mm
21:24 64.4 °F /  18 °C 57.0 °F /  13.9 °C 29.76in /  1007.7hPa SE 1.0mph /  1.6km/h 1.0mph /  1.6km/h 77% 0.00in /  0mm
21:29 64.4 °F /  18 °C 57.0 °F /  13.9 °C 29.76in /  1007.7hPa SE 1.0mph /  1.6km/h 1.0mph /  1.6km/h 77% 0.00in /  0mm
21:34 64.3 °F /  17.9 °C 57.0 °F /  13.9 °C 29.76in /  1007.7hPa SE 1.0mph /  1.6km/h 1.0mph /  1.6km/h 77% 0.00in /  0mm
21:39 64.2 °F /  17.9 °C 57.2 °F /  14 °C 29.76in /  1007.7hPa Calm   1.0mph /  1.6km/h 78% 0.00in /  0mm
21:44 64.3 °F /  17.9 °C 57.0 °F /  13.9 °C 29.76in /  1007.7hPa Calm   2.0mph /  3.2km/h 77% 0.00in /  0mm
21:49 64.5 °F /  18.1 °C 57.1 °F /  13.9 °C 29.76in /  1007.7hPa WSW 1.0mph /  1.6km/h 2.0mph /  3.2km/h 77% 0.00in /  0mm
21:54 64.2 °F /  17.9 °C 57.2 °F /  14 °C 29.77in /  1008hPa WSW 1.0mph /  1.6km/h 1.0mph /  1.6km/h 78% 0.00in /  0mm
21:59 63.8 °F /  17.7 °C 57.5 °F /  14.2 °C 29.77in /  1008hPa Calm   1.0mph /  1.6km/h 80% 0.00in /  0mm
22:04 63.8 °F /  17.7 °C 57.5 °F /  14.2 °C 29.77in /  1008hPa Calm     80% 0.00in /  0mm
22:09 63.8 °F /  17.7 °C 57.5 °F /  14.2 °C 29.77in /  1008hPa Calm     80% 0.00in /  0mm
22:14 63.9 °F /  17.7 °C 57.6 °F /  14.2 °C 29.77in /  1008hPa SE 1.0mph /  1.6km/h 1.0mph /  1.6km/h 80% 0.00in /  0mm
22:19 64.2 °F /  17.9 °C 57.6 °F /  14.2 °C 29.77in /  1008hPa SE 2.0mph /  3.2km/h 2.0mph /  3.2km/h 79% 0.00in /  0mm
22:25 64.5 °F /  18.1 °C 57.5 °F /  14.2 °C 29.77in /  1008hPa Calm   2.0mph /  3.2km/h 78% 0.00in /  0mm
22:30 64.3 °F /  17.9 °C 57.7 °F /  14.3 °C 29.77in /  1008hPa Calm   1.0mph /  1.6km/h 79% 0.00in /  0mm
22:35 63.7 °F /  17.6 °C 57.4 °F /  14.1 °C 29.77in /  1008hPa SW 1.0mph /  1.6km/h 1.0mph /  1.6km/h 80% 0.00in /  0mm
22:40 63.1 °F /  17.3 °C 57.2 °F /  14 °C 29.77in /  1008hPa SW 1.0mph /  1.6km/h 1.0mph /  1.6km/h 81% 0.00in /  0mm
22:45 62.7 °F /  17.1 °C 57.1 °F /  13.9 °C 29.77in /  1008hPa NW 3.0mph /  4.8km/h 3.0mph /  4.8km/h 82% 0.00in /  0mm
22:50 61.9 °F /  16.6 °C 57.0 °F /  13.9 °C 29.77in /  1008hPa NNW 4.0mph /  6.4km/h 5.0mph /  8km/h 84% 0.00in /  0mm
22:55 62.3 °F /  16.8 °C 57.4 °F /  14.1 °C 29.78in /  1008.4hPa West 3.0mph /  4.8km/h 3.0mph /  4.8km/h 84% 0.00in /  0mm
23:00 62.3 °F /  16.8 °C 57.7 °F /  14.3 °C 29.78in /  1008.4hPa NW 4.0mph /  6.4km/h 6.0mph /  9.7km/h 85% 0.00in /  0mm
23:05 62.5 °F /  16.9 °C 57.9 °F /  14.4 °C 29.78in /  1008.4hPa WNW 4.0mph /  6.4km/h 5.0mph /  8km/h 85% 0.00in /  0mm
23:10 62.6 °F /  17 °C 58.0 °F /  14.4 °C 29.78in /  1008.4hPa NW 2.0mph /  3.2km/h 7.0mph /  11.3km/h 85% 0.00in /  0mm
23:15 62.6 °F /  17 °C 58.4 °F /  14.7 °C 29.78in /  1008.4hPa NW 4.0mph /  6.4km/h 10.0mph /  16.1km/h 86% 0.00in /  0mm
23:20 62.6 °F /  17 °C 58.4 °F /  14.7 °C 29.78in /  1008.4hPa NW 2.0mph /  3.2km/h 10.0mph /  16.1km/h 86% 0.00in /  0mm
23:25 62.5 °F /  16.9 °C 58.6 °F /  14.8 °C 29.79in /  1008.7hPa WNW 4.0mph /  6.4km/h 8.0mph /  12.9km/h 87% 0.00in /  0mm
23:30 62.5 °F /  16.9 °C 58.6 °F /  14.8 °C 29.79in /  1008.7hPa NW 3.0mph /  4.8km/h 7.0mph /  11.3km/h 87% 0.00in /  0mm
23:31 62.5 °F /  16.9 °C 58.6 °F /  14.8 °C 29.79in /  1008.7hPa NW 4.0mph /  6.4km/h 8.0mph /  12.9km/h 87% 0.00in /  0mm
23:36 62.4 °F /  16.9 °C 58.5 °F /  14.7 °C 29.79in /  1008.7hPa North 4.0mph /  6.4km/h 6.0mph /  9.7km/h 87% 0.00in /  0mm
23:41 62.2 °F /  16.8 °C 58.3 °F /  14.6 °C 29.78in /  1008.4hPa NNW 4.0mph /  6.4km/h 6.0mph /  9.7km/h 87% 0.00in /  0mm
23:46 62.1 °F /  16.7 °C 58.2 °F /  14.6 °C 29.78in /  1008.4hPa North 5.0mph /  8km/h 5.0mph /  8km/h 87% 0.00in /  0mm
23:51 61.9 °F /  16.6 °C 58.3 °F /  14.6 °C 29.78in /  1008.4hPa NNW 3.0mph /  4.8km/h 5.0mph /  8km/h 88% 0.00in /  0mm
23:56 61.6 °F /  16.4 °C 58.0 °F /  14.4 °C 29.78in /  1008.4hPa North 1.0mph /  1.6km/h 4.0mph /  6.4km/h 88% 0.00in /  0mm
Compliments of Weather Underground